createdAt,value
2018-04-29T00:02:14.408Z,1.37
2018-04-29T00:04:43.557Z,1.50
2018-04-29T00:07:13.135Z,1.70
2018-04-29T00:09:42.963Z,1.80
2018-04-29T00:12:12.547Z,1.97
2018-04-29T00:17:41.413Z,2.00
2018-04-29T00:20:11.409Z,1.40
2018-04-29T00:22:41.743Z,1.83
2018-04-29T00:25:10.769Z,1.60
2018-04-29T00:27:39.645Z,1.70
2018-04-29T00:30:08.466Z,1.80
2018-04-29T00:32:38.208Z,1.53
2018-04-29T00:35:07.938Z,1.63
2018-04-29T00:37:36.753Z,1.57
2018-04-29T00:40:05.554Z,1.77
2018-04-29T00:42:34.658Z,2.40
2018-04-29T00:45:02.992Z,1.40
2018-04-29T00:47:31.695Z,1.93
2018-04-29T00:50:00.779Z,1.50
2018-04-29T00:52:29.134Z,1.80
2018-04-29T00:54:57.541Z,2.08
2018-04-29T00:57:25.868Z,1.87
2018-04-29T00:59:55.785Z,1.77
2018-04-29T01:02:24.874Z,1.73
2018-04-29T01:04:54.704Z,2.27
2018-04-29T01:07:23.124Z,1.93
2018-04-29T01:09:52.150Z,1.67
2018-04-29T01:12:22.010Z,1.97
2018-04-29T01:14:50.894Z,2.20
2018-04-29T01:17:19.957Z,1.53
2018-04-29T01:19:49.334Z,1.70
2018-04-29T01:22:17.962Z,2.00
2018-04-29T01:24:47.096Z,2.93
2018-04-29T01:27:16.902Z,3.20
2018-04-29T01:29:45.876Z,1.60
2018-04-29T01:32:15.234Z,2.40
2018-04-29T01:34:45.800Z,2.13
2018-04-29T01:37:19.132Z,2.37
2018-04-29T01:39:48.506Z,2.13
2018-04-29T01:42:21.118Z,2.75
2018-04-29T01:44:50.713Z,3.00
2018-04-29T01:47:22.211Z,2.83
2018-04-29T01:49:50.957Z,2.13
2018-04-29T01:52:20.348Z,2.37
2018-04-29T01:54:50.016Z,2.03
2018-04-29T01:57:19.245Z,2.20
2018-04-29T01:59:50.198Z,2.10
2018-04-29T02:02:20.012Z,2.07
2018-04-29T02:04:49.848Z,1.97
2018-04-29T02:07:19.807Z,1.80
2018-04-29T02:09:49.797Z,2.43
2018-04-29T02:12:20.059Z,2.10
2018-04-29T02:14:49.858Z,2.50
2018-04-29T02:17:19.467Z,2.23
2018-04-29T02:19:49.787Z,2.67
2018-04-29T02:22:19.023Z,2.10
2018-04-29T02:24:50.174Z,1.80
2018-04-29T02:27:19.726Z,2.20
2018-04-29T02:29:49.082Z,2.30
2018-04-29T02:32:19.121Z,2.57
2018-04-29T02:34:48.970Z,2.00
2018-04-29T02:37:18.599Z,2.50
2018-04-29T02:39:48.795Z,2.50
2018-04-29T02:42:18.868Z,2.00
2018-04-29T02:44:48.016Z,1.87
2018-04-29T02:47:17.621Z,2.17
2018-04-29T02:49:48.298Z,2.00
2018-04-29T02:52:18.933Z,2.60
2018-04-29T02:54:49.990Z,2.60
2018-04-29T02:57:19.894Z,2.60
2018-04-29T02:59:52.032Z,2.70
2018-04-29T03:02:21.425Z,2.33
2018-04-29T03:04:51.078Z,2.70
2018-04-29T03:07:20.701Z,2.70
2018-04-29T03:09:51.512Z,2.60
2018-04-29T03:12:20.395Z,3.30
2018-04-29T03:14:53.983Z,2.33
2018-04-29T03:17:23.326Z,2.53
2018-04-29T03:19:53.016Z,2.75
2018-04-29T03:22:21.722Z,2.80
2018-04-29T03:24:54.704Z,2.80
2018-04-29T03:27:23.435Z,2.90
2018-04-29T03:29:54.018Z,2.60
2018-04-29T03:32:23.556Z,2.90
2018-04-29T03:34:52.980Z,2.40
2018-04-29T03:37:22.075Z,2.37
2018-04-29T03:39:52.961Z,2.07
2018-04-29T03:42:28.125Z,2.80
2018-04-29T03:44:57.369Z,2.93
2018-04-29T03:47:26.759Z,1.77
2018-04-29T03:49:55.108Z,2.43
2018-04-29T03:52:26.022Z,1.93
2018-04-29T03:54:54.353Z,2.83
2018-04-29T03:57:34.448Z,2.63
2018-04-29T04:00:16.487Z,1.77
2018-04-29T04:02:57.620Z,2.53
2018-04-29T04:05:26.369Z,2.40
2018-04-29T04:07:54.717Z,3.03
2018-04-29T04:10:24.374Z,3.40
2018-04-29T04:12:52.855Z,3.33
2018-04-29T04:15:22.474Z,2.97
2018-04-29T04:17:51.417Z,3.80
2018-04-29T04:20:22.000Z,2.77
2018-04-29T04:22:51.054Z,3.30
2018-04-29T04:25:20.857Z,3.30
2018-04-29T04:27:51.762Z,2.47
2018-04-29T04:30:25.232Z,3.10
2018-04-29T04:32:53.757Z,3.07
2018-04-29T04:35:23.512Z,2.80
2018-04-29T04:37:52.117Z,3.00
2018-04-29T04:40:22.636Z,2.90
2018-04-29T04:42:51.546Z,3.30
2018-04-29T04:45:21.393Z,2.50
2018-04-29T04:47:51.710Z,2.33
2018-04-29T04:50:20.931Z,2.73
2018-04-29T04:52:51.137Z,2.77
2018-04-29T04:55:21.416Z,3.30
2018-04-29T04:57:52.138Z,2.90
2018-04-29T05:00:21.865Z,2.90
2018-04-29T05:02:51.414Z,3.30
2018-04-29T05:05:20.697Z,3.35
2018-04-29T05:07:50.157Z,3.40
2018-04-29T05:10:20.986Z,2.77
2018-04-29T05:12:50.858Z,3.07
2018-04-29T05:15:24.529Z,3.00
2018-04-29T05:17:53.069Z,2.57
2018-04-29T05:20:23.005Z,2.90
2018-04-29T05:22:52.530Z,3.93
2018-04-29T05:25:23.269Z,3.30
2018-04-29T05:27:57.005Z,3.20
2018-04-29T05:30:26.136Z,2.70
2018-04-29T05:32:54.477Z,2.72
2018-04-29T05:35:23.797Z,3.23
2018-04-29T05:37:53.883Z,2.47
2018-04-29T05:40:24.224Z,2.30
2018-04-29T05:42:52.864Z,2.50
2018-04-29T05:45:22.964Z,2.20
2018-04-29T05:47:52.370Z,2.47
2018-04-29T05:50:23.122Z,1.70
2018-04-29T05:52:51.773Z,1.83
2018-04-29T05:55:22.973Z,2.07
2018-04-29T05:57:51.634Z,1.93
2018-04-29T06:00:20.954Z,2.03
2018-04-29T06:02:50.634Z,1.77
2018-04-29T06:05:20.574Z,2.00
2018-04-29T06:07:49.867Z,1.77
2018-04-29T06:10:20.809Z,2.40
2018-04-29T06:12:50.346Z,2.23
2018-04-29T06:15:20.785Z,2.50
2018-04-29T06:17:50.296Z,2.50
2018-04-29T06:20:20.228Z,2.50
2018-04-29T06:22:50.918Z,3.40
2018-04-29T06:25:20.209Z,2.40
2018-04-29T06:27:49.809Z,2.30
2018-04-29T06:30:19.952Z,1.60
2018-04-29T06:32:52.137Z,2.67
2018-04-29T06:35:21.108Z,2.17
2018-04-29T06:37:53.261Z,2.30
2018-04-29T06:40:23.010Z,2.87
2018-04-29T06:42:51.522Z,1.67
2018-04-29T06:45:21.811Z,2.10
2018-04-29T06:47:50.947Z,1.83
2018-04-29T06:50:24.854Z,1.80
2018-04-29T06:52:53.213Z,1.40
2018-04-29T06:55:22.521Z,1.60
2018-04-29T06:57:55.231Z,1.70
2018-04-29T07:00:23.693Z,1.98
2018-04-29T07:02:53.730Z,1.90
2018-04-29T07:05:23.128Z,1.87
2018-04-29T07:07:51.473Z,1.40
2018-04-29T07:10:25.048Z,1.50
2018-04-29T07:12:55.841Z,1.80
2018-04-29T07:15:25.196Z,1.83
2018-04-29T07:17:53.585Z,2.20
2018-04-29T07:20:21.922Z,2.30
2018-04-29T07:22:51.034Z,2.00
2018-04-29T07:25:21.592Z,1.60
2018-04-29T07:27:51.665Z,1.73
2018-04-29T07:30:24.661Z,2.23
2018-04-29T07:32:54.880Z,1.80
2018-04-29T07:35:26.800Z,2.20
2018-04-29T07:37:55.148Z,1.70
2018-04-29T07:40:25.911Z,1.83
2018-04-29T07:42:54.281Z,1.57
2018-04-29T07:45:24.773Z,2.70
2018-04-29T07:47:53.237Z,2.20
2018-04-29T07:50:23.907Z,2.23
2018-04-29T07:52:52.649Z,2.33
2018-04-29T07:55:22.135Z,2.57
2018-04-29T07:57:54.044Z,2.33
2018-04-29T08:00:24.086Z,2.23
2018-04-29T08:02:53.430Z,2.03
2018-04-29T08:05:23.429Z,2.30
2018-04-29T08:07:51.995Z,2.20
2018-04-29T08:10:21.379Z,2.03
2018-04-29T08:12:51.657Z,1.63
2018-04-29T08:15:21.332Z,2.60
2018-04-29T08:17:50.857Z,2.37
2018-04-29T08:20:21.353Z,2.00
2018-04-29T08:22:51.098Z,2.70
2018-04-29T08:25:20.454Z,2.60
2018-04-29T08:27:53.004Z,3.00
2018-04-29T08:30:25.321Z,2.67
2018-04-29T08:32:57.846Z,2.00
2018-04-29T08:35:26.257Z,2.63
2018-04-29T08:37:56.013Z,2.50
2018-04-29T08:40:26.324Z,2.00
2018-04-29T08:42:55.541Z,2.20
2018-04-29T08:45:26.475Z,2.20
2018-04-29T08:47:56.004Z,2.70
2018-04-29T08:50:25.923Z,1.73
2018-04-29T08:52:56.417Z,2.20
2018-04-29T08:55:25.828Z,1.67
2018-04-29T08:57:55.784Z,1.95
2018-04-29T09:00:25.099Z,1.90
2018-04-29T09:02:55.151Z,2.17
2018-04-29T09:05:24.929Z,1.90
2018-04-29T09:07:53.303Z,2.17
2018-04-29T09:10:23.502Z,2.27
2018-04-29T09:12:53.344Z,2.28
2018-04-29T09:15:22.715Z,2.33
2018-04-29T09:17:52.652Z,2.57
2018-04-29T09:20:23.901Z,1.60
2018-04-29T09:22:53.580Z,2.10
2018-04-29T09:25:23.046Z,1.73
2018-04-29T09:27:54.704Z,1.70
2018-04-29T09:30:25.231Z,1.90
2018-04-29T09:32:53.693Z,2.90
2018-04-29T09:35:23.732Z,2.00
2018-04-29T09:37:54.284Z,2.07
2018-04-29T09:40:24.239Z,3.60
2018-04-29T09:42:54.214Z,2.30
2018-04-29T09:45:23.675Z,3.00
2018-04-29T09:47:53.147Z,2.63
2018-04-29T09:50:24.975Z,3.67
2018-04-29T09:52:54.137Z,2.27
2018-04-29T09:55:22.611Z,2.10
2018-04-29T09:57:50.969Z,2.80
2018-04-29T10:00:26.717Z,2.60
2018-04-29T10:03:03.397Z,2.40
2018-04-29T10:05:31.804Z,2.63
2018-04-29T10:08:00.922Z,2.90
2018-04-29T10:10:30.039Z,2.90
2018-04-29T10:12:58.484Z,2.20
2018-04-29T10:15:26.922Z,2.63
2018-04-29T10:17:55.324Z,2.03
2018-04-29T10:20:26.726Z,1.90
2018-04-29T10:22:56.223Z,2.30
2018-04-29T10:25:26.486Z,2.85
2018-04-29T10:27:55.675Z,3.20
2018-04-29T10:30:27.863Z,2.53
2018-04-29T10:32:56.322Z,2.73
2018-04-29T10:35:26.320Z,2.70
2018-04-29T10:37:55.228Z,2.50
2018-04-29T10:40:25.331Z,2.20
2018-04-29T10:42:56.412Z,2.30
2018-04-29T10:45:25.252Z,2.77
2018-04-29T10:47:54.418Z,3.27
2018-04-29T10:50:24.263Z,2.23
2018-04-29T10:52:53.005Z,3.03
2018-04-29T10:55:21.498Z,2.97
2018-04-29T10:57:50.429Z,2.67
2018-04-29T11:00:20.887Z,2.20
2018-04-29T11:02:50.552Z,2.83
2018-04-29T11:05:19.671Z,2.30
2018-04-29T11:07:49.202Z,2.40
2018-04-29T11:10:20.034Z,2.73
2018-04-29T11:12:50.210Z,2.30
2018-04-29T11:15:20.162Z,2.60
2018-04-29T11:17:51.031Z,1.93
2018-04-29T11:20:20.830Z,1.97
2018-04-29T11:22:51.074Z,2.43
2018-04-29T11:25:20.026Z,2.10
2018-04-29T11:27:49.533Z,2.20
2018-04-29T11:30:18.906Z,2.10
2018-04-29T11:32:49.157Z,2.10
2018-04-29T11:35:19.072Z,2.40
2018-04-29T11:37:49.655Z,1.93
2018-04-29T11:40:20.123Z,2.10
2018-04-29T11:42:54.877Z,1.93
2018-04-29T11:45:24.039Z,2.10
2018-04-29T11:47:57.767Z,2.50
2018-04-29T11:50:27.094Z,2.23
2018-04-29T11:52:56.246Z,2.33
2018-04-29T11:55:25.854Z,2.30
2018-04-29T11:57:54.185Z,2.40
2018-04-29T12:00:25.007Z,2.23
2018-04-29T12:02:54.282Z,2.87
2018-04-29T12:05:24.379Z,1.90
2018-04-29T12:07:55.029Z,2.03
2018-04-29T12:10:24.891Z,2.17
2018-04-29T12:12:56.433Z,2.62
2018-04-29T12:15:25.170Z,2.10
2018-04-29T12:17:56.342Z,2.87
2018-04-29T12:20:25.756Z,1.73
2018-04-29T12:22:54.103Z,1.67
2018-04-29T12:25:22.522Z,2.27
2018-04-29T12:27:53.524Z,1.83
2018-04-29T12:30:22.425Z,1.73
2018-04-29T12:32:51.389Z,2.37
2018-04-29T12:35:20.842Z,2.60
2018-04-29T12:37:57.392Z,1.70
2018-04-29T12:40:26.442Z,2.50
2018-04-29T12:42:55.552Z,1.90
2018-04-29T12:45:24.689Z,2.30
2018-04-29T12:47:54.919Z,1.80
2018-04-29T12:50:23.584Z,2.30
2018-04-29T12:52:57.407Z,2.20
2018-04-29T12:55:25.869Z,2.40
2018-04-29T12:57:54.183Z,2.10
2018-04-29T13:00:25.356Z,2.00
2018-04-29T13:02:55.167Z,1.70
2018-04-29T13:05:25.482Z,1.90
2018-04-29T13:07:56.231Z,2.00
2018-04-29T13:10:26.100Z,2.50
2018-04-29T13:12:56.197Z,2.00
2018-04-29T13:15:25.533Z,2.10
2018-04-29T13:17:57.913Z,2.17
2018-04-29T13:20:26.672Z,2.43
2018-04-29T13:22:56.111Z,2.30
2018-04-29T13:25:24.467Z,2.60
2018-04-29T13:27:54.988Z,2.60
2018-04-29T13:30:25.090Z,2.37
2018-04-29T13:32:53.547Z,2.20
2018-04-29T13:35:21.910Z,2.40
2018-04-29T13:37:53.113Z,3.60
2018-04-29T13:40:23.475Z,2.30
2018-04-29T13:42:52.184Z,2.60
2018-04-29T13:45:21.101Z,2.73
2018-04-29T13:47:51.096Z,2.20
2018-04-29T13:50:20.765Z,2.70
2018-04-29T13:52:50.581Z,2.97
2018-04-29T13:55:20.065Z,2.47
2018-04-29T13:57:50.227Z,2.50
2018-04-29T14:00:25.245Z,2.67
2018-04-29T14:02:53.721Z,2.27
2018-04-29T14:05:24.586Z,2.80
2018-04-29T14:07:53.899Z,2.00
2018-04-29T14:10:27.048Z,3.17
2018-04-29T14:12:55.338Z,2.30
2018-04-29T14:15:25.439Z,2.50
2018-04-29T14:17:53.818Z,2.13
2018-04-29T14:20:23.985Z,2.27
2018-04-29T14:22:54.258Z,2.27
2018-04-29T14:25:22.937Z,2.10
2018-04-29T14:27:53.347Z,2.43
2018-04-29T14:30:24.183Z,2.20
2018-04-29T14:32:52.859Z,2.47
2018-04-29T14:35:22.158Z,2.40
2018-04-29T14:37:51.868Z,2.00
2018-04-29T14:40:25.765Z,2.60
2018-04-29T14:42:55.906Z,2.37
2018-04-29T14:45:29.004Z,2.13
2018-04-29T14:47:58.100Z,2.77
2018-04-29T14:50:27.009Z,2.40
2018-04-29T14:52:55.302Z,2.13
2018-04-29T14:55:26.802Z,2.47
2018-04-29T14:57:56.493Z,2.50
2018-04-29T15:00:27.574Z,2.40
2018-04-29T15:02:55.968Z,2.30
2018-04-29T15:05:27.324Z,2.47
2018-04-29T15:07:58.306Z,2.17
2018-04-29T15:10:30.663Z,2.40
2018-04-29T15:12:59.798Z,2.53
2018-04-29T15:18:53.357Z,2.83
2018-04-29T15:21:23.297Z,2.70
2018-04-29T15:23:53.308Z,2.87
2018-04-29T15:26:28.542Z,2.70
2018-04-29T15:28:58.493Z,2.40
2018-04-29T15:31:27.835Z,3.87
2018-04-29T15:33:56.973Z,2.40
2018-04-29T15:36:27.414Z,2.30
2018-04-29T15:38:57.862Z,2.70
2018-04-29T15:41:59.685Z,2.30
2018-04-29T15:44:56.055Z,2.53
2018-04-29T15:47:44.267Z,2.80
2018-04-29T15:50:16.273Z,1.93
2018-04-29T15:52:47.042Z,2.33
2018-04-29T15:55:18.317Z,3.10
2018-04-29T15:57:49.424Z,2.30
2018-04-29T16:00:22.057Z,3.20
2018-04-29T16:02:52.135Z,3.77
2018-04-29T16:05:21.728Z,3.60
2018-04-29T16:07:51.314Z,3.43
2018-04-29T16:10:21.197Z,3.97
2018-04-29T16:12:50.912Z,4.25
2018-04-29T16:15:22.007Z,3.47
2018-04-29T16:17:52.969Z,3.20
2018-04-29T16:20:23.645Z,2.60
2018-04-29T16:22:57.677Z,2.83
2018-04-29T16:25:26.275Z,3.10
2018-04-29T16:27:55.345Z,2.80
2018-04-29T16:30:24.388Z,2.70
2018-04-29T16:32:54.884Z,2.80
2018-04-29T16:35:24.106Z,2.60
2018-04-29T16:37:53.643Z,2.50
2018-04-29T16:40:23.201Z,2.83
2018-04-29T16:42:52.610Z,3.03
2018-04-29T16:45:23.103Z,3.30
2018-04-29T16:47:55.958Z,3.20
2018-04-29T16:50:26.348Z,3.63
2018-04-29T16:52:58.895Z,3.20
2018-04-29T16:55:27.901Z,3.90
2018-04-29T16:57:56.210Z,2.93
2018-04-29T17:00:25.815Z,2.70
2018-04-29T17:02:54.143Z,2.60
2018-04-29T17:05:23.946Z,3.13
2018-04-29T17:07:53.590Z,2.53
2018-04-29T17:10:28.761Z,2.80
2018-04-29T17:12:57.851Z,2.33
2018-04-29T17:15:26.257Z,3.37
2018-04-29T17:17:55.497Z,3.23
2018-04-29T17:20:24.217Z,2.93
2018-04-29T17:22:53.311Z,2.70
2018-04-29T17:25:21.972Z,3.00
2018-04-29T17:27:51.704Z,2.80
2018-04-29T17:30:21.743Z,3.27
2018-04-29T17:32:51.375Z,2.53
2018-04-29T17:35:20.785Z,2.83
2018-04-29T17:37:51.088Z,3.67
2018-04-29T17:40:21.064Z,2.90
2018-04-29T17:42:51.106Z,3.90
2018-04-29T17:45:21.324Z,3.27
2018-04-29T17:47:51.728Z,4.13
2018-04-29T17:50:21.706Z,3.37
2018-04-29T17:52:50.595Z,2.95
2018-04-29T17:55:19.145Z,2.87
2018-04-29T17:57:48.247Z,2.83
2018-04-29T18:00:17.111Z,3.17
2018-04-29T18:02:48.174Z,3.10
2018-04-29T18:05:18.421Z,3.50
2018-04-29T18:07:49.032Z,3.70
2018-04-29T18:10:20.129Z,3.43
2018-04-29T18:12:52.073Z,4.33
2018-04-29T18:15:26.542Z,3.33
2018-04-29T18:17:56.548Z,3.83
2018-04-29T18:20:24.992Z,3.67
2018-04-29T18:22:53.571Z,3.53
2018-04-29T18:25:22.026Z,3.73
2018-04-29T18:27:53.314Z,3.73
2018-04-29T18:30:22.704Z,3.87
2018-04-29T18:32:52.299Z,3.50
2018-04-29T18:35:21.935Z,3.33
2018-04-29T18:37:57.347Z,3.57
2018-04-29T18:40:28.373Z,3.27
2018-04-29T18:42:56.724Z,4.17
2018-04-29T18:45:25.918Z,4.18
2018-04-29T18:47:56.001Z,3.13
2018-04-29T18:50:25.514Z,4.37
2018-04-29T18:52:54.533Z,3.80
2018-04-29T18:55:23.914Z,4.43
2018-04-29T18:57:53.111Z,4.20
2018-04-29T19:00:23.275Z,4.53
2018-04-29T19:02:52.153Z,4.43
2018-04-29T19:05:22.337Z,4.17
2018-04-29T19:07:52.564Z,4.93
2018-04-29T19:10:21.769Z,4.57
2018-04-29T19:12:51.866Z,4.30
2018-04-29T19:15:21.908Z,4.10
2018-04-29T19:17:53.309Z,4.43
2018-04-29T19:20:24.618Z,4.30
2018-04-29T19:22:53.269Z,4.67
2018-04-29T19:25:21.769Z,4.43
2018-04-29T19:27:57.494Z,5.00
2018-04-29T19:30:28.547Z,4.50
2018-04-29T19:32:57.863Z,5.17
2018-04-29T19:35:27.434Z,4.60
2018-04-29T19:37:58.701Z,4.30
2018-04-29T19:40:28.237Z,4.03
2018-04-29T19:42:57.301Z,5.03
2018-04-29T19:45:26.570Z,5.03
2018-04-29T19:47:54.873Z,5.17
2018-04-29T19:50:24.020Z,5.23
2018-04-29T19:52:53.795Z,4.60
2018-04-29T19:55:27.562Z,4.93
2018-04-29T19:57:55.916Z,5.83
2018-04-29T20:00:25.040Z,5.63
2018-04-29T20:02:53.336Z,5.00
2018-04-29T20:05:21.757Z,6.03
2018-04-29T20:07:51.407Z,6.20
2018-04-29T20:10:20.728Z,6.03
2018-04-29T20:12:51.390Z,5.80
2018-04-29T20:15:20.976Z,6.23
2018-04-29T20:17:50.963Z,6.77
2018-04-29T20:20:20.910Z,5.83
2018-04-29T20:22:50.674Z,7.03
2018-04-29T20:25:21.631Z,6.40
2018-04-29T20:27:51.124Z,5.97
2018-04-29T20:30:20.910Z,6.50
2018-04-29T20:32:50.669Z,5.63
2018-04-29T20:35:20.043Z,5.90
2018-04-29T20:37:50.832Z,6.83
2018-04-29T20:40:21.183Z,6.67
2018-04-29T20:42:51.063Z,6.33
2018-04-29T20:45:23.025Z,7.27
2018-04-29T20:47:52.102Z,6.17
2018-04-29T20:50:22.013Z,6.13
2018-04-29T20:52:56.105Z,6.53
2018-04-29T20:55:24.650Z,7.00
2018-04-29T20:57:54.302Z,6.50
2018-04-29T21:00:23.458Z,6.87
2018-04-29T21:02:54.483Z,6.97
2018-04-29T21:05:25.239Z,7.30
2018-04-29T21:07:56.540Z,7.70
2018-04-29T21:10:25.677Z,7.07
2018-04-29T21:12:55.466Z,6.70
2018-04-29T21:15:26.167Z,6.53
2018-04-29T21:17:54.601Z,7.80
2018-04-29T21:20:24.592Z,7.60
2018-04-29T21:22:53.103Z,6.60
2018-04-29T21:25:22.552Z,7.23
2018-04-29T21:27:52.069Z,8.20
2018-04-29T21:30:22.785Z,7.10
2018-04-29T21:32:51.964Z,7.97
2018-04-29T21:35:24.286Z,7.87
2018-04-29T21:37:54.296Z,7.83
2018-04-29T21:40:23.661Z,7.37
2018-04-29T21:42:51.963Z,7.23
2018-04-29T21:45:21.452Z,7.27
2018-04-29T21:47:50.594Z,7.27
2018-04-29T21:50:19.936Z,8.20
2018-04-29T21:52:50.451Z,7.30
2018-04-29T21:55:21.569Z,6.47
2018-04-29T21:57:50.186Z,7.90
2018-04-29T22:00:19.233Z,7.30
2018-04-29T22:02:48.804Z,7.40
2018-04-29T22:05:18.963Z,7.90
2018-04-29T22:07:49.129Z,8.70
2018-04-29T22:10:18.827Z,7.57
2018-04-29T22:12:47.191Z,9.73
2018-04-29T22:15:17.200Z,8.07
2018-04-29T22:17:47.405Z,7.93
2018-04-29T22:20:16.882Z,9.37
2018-04-29T22:22:47.155Z,7.90
2018-04-29T22:25:16.461Z,8.67
2018-04-29T22:27:53.659Z,8.00
2018-04-29T22:30:23.364Z,8.20
2018-04-29T22:32:52.897Z,8.70
2018-04-29T22:35:22.105Z,8.60
2018-04-29T22:37:54.223Z,9.40
2018-04-29T22:40:22.858Z,9.13
2018-04-29T22:42:55.019Z,9.93
2018-04-29T22:45:23.363Z,9.00
2018-04-29T22:47:52.616Z,9.00
2018-04-29T22:50:22.101Z,9.17
2018-04-29T22:52:52.321Z,8.90
2018-04-29T22:55:21.649Z,8.63
2018-04-29T22:57:50.452Z,9.70
2018-04-29T23:00:19.509Z,8.00
2018-04-29T23:02:50.219Z,8.70
2018-04-29T23:05:19.999Z,9.70
2018-04-29T23:07:48.888Z,9.90
2018-04-29T23:10:18.479Z,8.87
2018-04-29T23:12:47.893Z,9.83
2018-04-29T23:15:18.065Z,9.83
2018-04-29T23:17:48.978Z,9.53
2018-04-29T23:20:19.821Z,9.63
2018-04-29T23:22:49.301Z,9.73
2018-04-29T23:25:19.215Z,10.40
2018-04-29T23:27:49.402Z,9.53
2018-04-29T23:30:19.827Z,9.60
2018-04-29T23:32:49.286Z,9.73
2018-04-29T23:35:19.302Z,9.13
2018-04-29T23:37:49.877Z,11.53
2018-04-29T23:40:20.034Z,9.77
2018-04-29T23:42:50.017Z,10.10
2018-04-29T23:45:18.622Z,10.30
2018-04-29T23:47:48.808Z,12.00
2018-04-29T23:50:17.924Z,11.43
2018-04-29T23:52:47.991Z,11.27
2018-04-29T23:55:19.441Z,11.80
2018-04-29T23:57:50.765Z,11.97
